createdAt,value
2018-12-27T00:00:02.725Z,3.50
2018-12-27T00:02:31.364Z,3.60
2018-12-27T00:05:04.742Z,4.00
2018-12-27T00:07:36.240Z,3.87
2018-12-27T00:10:09.232Z,3.60
2018-12-27T00:12:40.670Z,3.30
2018-12-27T00:28:44.262Z,3.50
2018-12-27T00:34:34.437Z,3.47
2018-12-27T00:37:04.131Z,3.80
2018-12-27T00:39:35.982Z,3.60
2018-12-27T00:42:05.140Z,3.53
2018-12-27T00:44:37.021Z,3.40
2018-12-27T00:47:07.822Z,3.70
2018-12-27T00:49:38.540Z,3.40
2018-12-27T00:52:09.079Z,3.40
2018-12-27T01:00:56.562Z,3.20
2018-12-27T01:03:34.620Z,3.67
2018-12-27T01:11:50.926Z,3.50
2018-12-27T01:14:23.000Z,3.67
2018-12-27T01:16:54.006Z,3.70
2018-12-27T01:25:34.581Z,3.80
2018-12-27T01:28:06.105Z,3.53
2018-12-27T01:30:39.409Z,3.80
2018-12-27T01:33:18.699Z,3.80
2018-12-27T01:35:45.122Z,3.40
2018-12-27T01:38:20.639Z,3.70
2018-12-27T01:40:52.529Z,3.80
2018-12-27T01:43:23.359Z,3.93
2018-12-27T01:45:54.710Z,4.30
2018-12-27T01:48:25.701Z,3.63
2018-12-27T01:50:56.970Z,3.50
2018-12-27T01:59:08.028Z,3.70
2018-12-27T02:01:39.867Z,3.97
2018-12-27T02:04:11.460Z,3.50
2018-12-27T02:06:47.008Z,3.50
2018-12-27T02:09:18.904Z,4.00
2018-12-27T02:11:51.272Z,3.80
2018-12-27T02:14:21.521Z,3.83
2018-12-27T02:16:54.791Z,3.60
2018-12-27T02:19:26.861Z,3.87
2018-12-27T02:22:01.299Z,3.77
2018-12-27T02:24:31.536Z,3.70
2018-12-27T02:27:03.134Z,3.47
2018-12-27T02:29:34.623Z,3.83
2018-12-27T02:32:07.421Z,3.83
2018-12-27T02:34:49.410Z,3.53
2018-12-27T02:37:22.745Z,4.10
2018-12-27T02:39:54.234Z,4.00
2018-12-27T02:42:25.001Z,4.00
2018-12-27T02:44:57.198Z,4.07
2018-12-27T02:47:32.014Z,3.60
2018-12-27T02:50:04.859Z,4.20
2018-12-27T02:52:35.184Z,3.53
2018-12-27T02:55:06.565Z,3.57
2018-12-27T02:57:39.194Z,3.97
2018-12-27T03:15:33.270Z,4.00
2018-12-27T03:18:03.723Z,4.03
2018-12-27T03:20:35.035Z,3.93
2018-12-27T03:23:08.438Z,4.07
2018-12-27T03:55:59.084Z,4.03
2018-12-27T03:58:29.484Z,3.87
2018-12-27T04:01:02.863Z,4.40
2018-12-27T04:03:36.253Z,3.73
2018-12-27T04:06:08.824Z,3.70
2018-12-27T04:08:39.443Z,3.50
2018-12-27T04:11:08.982Z,3.90
2018-12-27T04:13:42.478Z,4.47
2018-12-27T04:16:13.511Z,4.17
2018-12-27T04:28:39.382Z,4.00
2018-12-27T04:31:10.552Z,4.43
2018-12-27T04:33:42.110Z,4.50
2018-12-27T04:36:23.246Z,4.47
2018-12-27T04:46:11.512Z,4.27
2018-12-27T04:51:29.825Z,4.27
2018-12-27T04:54:00.778Z,4.40
2018-12-27T04:56:32.948Z,4.00
2018-12-27T05:05:07.634Z,4.10
2018-12-27T05:07:38.471Z,4.40
2018-12-27T05:10:10.243Z,3.40
2018-12-27T05:12:43.327Z,4.50
2018-12-27T05:15:13.448Z,4.17
2018-12-27T05:23:48.758Z,4.57
2018-12-27T05:26:19.245Z,4.60
2018-12-27T05:28:52.193Z,4.63
2018-12-27T05:35:05.697Z,4.33
2018-12-27T05:40:26.069Z,4.80
2018-12-27T05:42:57.194Z,4.23
2018-12-27T05:45:29.634Z,4.50
2018-12-27T05:48:01.843Z,4.50
2018-12-27T05:50:30.642Z,3.73
2018-12-27T05:53:01.104Z,4.20
2018-12-27T05:55:35.120Z,4.47
2018-12-27T05:58:05.570Z,4.17
2018-12-27T06:00:37.205Z,4.33
2018-12-27T06:03:06.058Z,4.53
2018-12-27T06:05:36.091Z,4.27
2018-12-27T06:27:37.021Z,4.50
2018-12-27T06:30:07.824Z,4.70
2018-12-27T06:32:36.312Z,4.17
2018-12-27T06:35:07.932Z,4.30
2018-12-27T06:37:40.953Z,4.30
2018-12-27T06:40:14.123Z,4.40
2018-12-27T06:42:45.021Z,4.30
2018-12-27T06:45:13.912Z,4.53
2018-12-27T06:47:44.282Z,4.40
2018-12-27T06:53:02.906Z,4.63
2018-12-27T06:55:33.166Z,4.27
2018-12-27T06:58:02.921Z,4.53
2018-12-27T07:00:33.682Z,4.57
2018-12-27T07:03:05.404Z,4.33
2018-12-27T07:05:36.365Z,4.43
2018-12-27T07:08:09.315Z,4.67
2018-12-27T07:10:38.197Z,4.50
2018-12-27T07:13:08.085Z,4.87
2018-12-27T07:15:41.120Z,4.30
2018-12-27T07:18:11.806Z,4.77
2018-12-27T07:34:36.689Z,4.30
2018-12-27T07:37:05.580Z,4.37
2018-12-27T07:39:35.028Z,4.33
2018-12-27T07:42:05.740Z,4.20
2018-12-27T07:44:37.262Z,4.70
2018-12-27T07:47:09.783Z,4.73
2018-12-27T07:49:42.191Z,4.37
2018-12-27T07:52:11.947Z,4.20
2018-12-27T07:54:42.398Z,4.40
2018-12-27T07:57:12.759Z,4.43
2018-12-27T07:59:43.330Z,4.47
2018-12-27T08:02:12.258Z,4.10
2018-12-27T08:04:42.922Z,4.03
2018-12-27T08:07:18.623Z,4.27
2018-12-27T08:09:49.982Z,3.70
2018-12-27T08:12:21.551Z,4.07
2018-12-27T08:14:51.948Z,4.33
2018-12-27T08:17:21.559Z,4.17
2018-12-27T08:19:51.919Z,3.67
2018-12-27T08:22:21.779Z,4.00
2018-12-27T08:24:50.613Z,4.27
2018-12-27T08:27:21.077Z,4.00
2018-12-27T08:29:49.914Z,4.27
2018-12-27T08:32:19.364Z,4.37
2018-12-27T08:35:02.647Z,4.20
2018-12-27T08:37:33.611Z,4.13
2018-12-27T08:40:07.200Z,4.20
2018-12-27T08:42:36.652Z,4.03
2018-12-27T08:45:07.773Z,4.17
2018-12-27T08:47:38.281Z,4.27
2018-12-27T08:50:11.949Z,4.37
2018-12-27T08:52:43.673Z,4.40
2018-12-27T08:55:14.985Z,4.43
2018-12-27T08:57:46.499Z,4.20
2018-12-27T09:00:16.972Z,4.60
2018-12-27T09:02:45.620Z,3.83
2018-12-27T09:05:19.099Z,4.33
2018-12-27T09:07:48.087Z,4.53
2018-12-27T09:10:18.761Z,3.70
2018-12-27T09:12:47.397Z,4.53
2018-12-27T09:15:18.879Z,4.00
2018-12-27T09:17:49.393Z,4.10
2018-12-27T09:20:33.516Z,3.90
2018-12-27T10:05:35.451Z,3.77
2018-12-27T10:08:05.110Z,4.40
2018-12-27T10:13:55.933Z,3.80
2018-12-27T10:17:06.016Z,4.30
2018-12-27T10:33:26.135Z,3.70
2018-12-27T10:48:53.548Z,3.93
2018-12-27T10:54:21.109Z,4.13
2018-12-27T10:56:55.592Z,4.10
2018-12-27T10:59:38.718Z,4.10
2018-12-27T11:02:24.371Z,4.00
2018-12-27T11:05:06.291Z,4.03
2018-12-27T11:07:47.557Z,4.30
2018-12-27T11:10:23.029Z,4.17
2018-12-27T11:13:03.894Z,3.97
2018-12-27T11:15:37.924Z,4.43
2018-12-27T11:21:03.809Z,4.27
2018-12-27T11:23:37.928Z,4.57
2018-12-27T11:26:17.687Z,3.77
2018-12-27T11:29:07.995Z,4.20
2018-12-27T11:31:48.994Z,4.40
2018-12-27T11:34:30.977Z,4.37
2018-12-27T11:37:06.081Z,4.10
2018-12-27T11:39:41.306Z,4.00
2018-12-27T11:42:22.517Z,3.83
2018-12-27T11:45:03.516Z,4.40
2018-12-27T11:47:44.892Z,4.80
2018-12-27T11:50:26.528Z,4.80
2018-12-27T11:53:08.143Z,4.50
2018-12-27T11:55:46.734Z,4.40
2018-12-27T11:58:20.788Z,4.37
2018-12-27T12:00:54.068Z,4.23
2018-12-27T12:03:25.307Z,4.50
2018-12-27T12:06:03.020Z,3.97
2018-12-27T12:08:28.553Z,4.20
2018-12-27T12:11:00.077Z,4.03
2018-12-27T12:13:32.262Z,4.13
2018-12-27T12:16:01.530Z,4.43
2018-12-27T12:18:32.972Z,4.20
2018-12-27T12:21:05.053Z,4.40
2018-12-27T12:23:37.372Z,4.00
2018-12-27T12:26:09.783Z,4.20
2018-12-27T12:28:40.342Z,4.67
2018-12-27T12:31:09.103Z,4.30
2018-12-27T12:33:41.902Z,4.23
2018-12-27T12:36:11.098Z,4.07
2018-12-27T12:38:44.827Z,4.73
2018-12-27T12:41:13.338Z,4.53
2018-12-27T12:43:45.881Z,4.40
2018-12-27T12:46:16.352Z,4.50
2018-12-27T12:48:46.622Z,4.40
2018-12-27T12:51:15.131Z,4.17
2018-12-27T12:53:47.321Z,4.43
2018-12-27T12:59:14.374Z,4.10
2018-12-27T13:01:42.906Z,4.23
2018-12-27T13:04:28.631Z,4.53
2018-12-27T13:06:58.206Z,4.20
2018-12-27T13:09:28.977Z,4.63
2018-12-27T13:11:59.424Z,4.70
2018-12-27T13:14:30.762Z,4.73
2018-12-27T13:17:02.121Z,4.10
2018-12-27T13:19:32.589Z,4.33
2018-12-27T13:22:11.391Z,4.27
2018-12-27T13:24:44.305Z,4.20
2018-12-27T13:27:14.584Z,4.27
2018-12-27T13:29:49.167Z,4.87
2018-12-27T13:32:19.277Z,4.00
2018-12-27T13:34:55.458Z,4.23
2018-12-27T13:37:30.610Z,4.13
2018-12-27T13:39:59.189Z,4.50
2018-12-27T13:42:30.951Z,4.43
2018-12-27T13:45:00.475Z,4.20
2018-12-27T13:47:49.735Z,4.20
2018-12-27T13:50:21.269Z,4.53
2018-12-27T13:52:57.719Z,4.23
2018-12-27T13:56:57.791Z,5.00
2018-12-27T13:59:44.856Z,4.73
2018-12-27T14:02:19.002Z,5.23
2018-12-27T14:04:50.077Z,4.43
2018-12-27T14:07:21.375Z,5.00
2018-12-27T14:09:53.500Z,4.67
2018-12-27T14:12:22.369Z,4.60
2018-12-27T14:14:56.818Z,4.70
2018-12-27T14:17:27.484Z,4.50
2018-12-27T14:19:56.389Z,4.50
2018-12-27T14:22:28.577Z,4.60
2018-12-27T14:25:01.713Z,5.00
2018-12-27T14:27:31.789Z,4.33
2018-12-27T14:30:01.217Z,4.63
2018-12-27T14:32:29.762Z,4.53
2018-12-27T14:35:00.762Z,4.70
2018-12-27T14:37:32.579Z,4.93
2018-12-27T14:40:03.204Z,4.73
2018-12-27T14:42:34.410Z,5.07
2018-12-27T14:45:05.966Z,5.50
2018-12-27T14:47:37.026Z,5.10
2018-12-27T14:50:06.806Z,5.17
2018-12-27T14:52:35.639Z,4.90
2018-12-27T14:55:07.457Z,5.20
2018-12-27T14:57:37.809Z,4.73
2018-12-27T15:00:09.523Z,5.60
2018-12-27T15:02:40.677Z,4.97
2018-12-27T15:05:10.542Z,4.87
2018-12-27T15:07:41.645Z,4.97
2018-12-27T15:10:11.527Z,5.07
2018-12-27T15:12:44.176Z,5.27
2018-12-27T15:15:18.553Z,4.80
2018-12-27T15:17:48.903Z,5.07
2018-12-27T15:20:21.904Z,4.90
2018-12-27T15:22:52.916Z,5.13
2018-12-27T15:25:31.582Z,5.07
2018-12-27T15:28:00.227Z,4.57
2018-12-27T15:30:32.497Z,5.17
2018-12-27T15:33:05.522Z,4.93
2018-12-27T15:35:41.887Z,4.90
2018-12-27T15:38:13.466Z,4.90
2018-12-27T15:40:44.001Z,4.73
2018-12-27T15:43:21.034Z,5.27
2018-12-27T15:46:04.608Z,5.00
2018-12-27T15:48:44.827Z,5.30
2018-12-27T15:51:33.185Z,4.30
2018-12-27T15:54:04.826Z,4.53
2018-12-27T15:56:33.486Z,5.03
2018-12-27T15:59:03.489Z,5.03
2018-12-27T16:01:37.768Z,5.00
2018-12-27T16:04:10.882Z,5.60
2018-12-27T16:06:40.749Z,5.20
2018-12-27T16:09:16.122Z,5.53
2018-12-27T16:11:46.032Z,4.90
2018-12-27T16:14:20.156Z,5.10
2018-12-27T16:16:49.040Z,5.40
2018-12-27T16:19:18.602Z,5.00
2018-12-27T16:21:53.735Z,5.10
2018-12-27T16:24:26.538Z,5.63
2018-12-27T16:26:58.198Z,5.27
2018-12-27T16:29:28.343Z,4.90
2018-12-27T16:31:58.373Z,4.73
2018-12-27T16:34:37.074Z,5.37
2018-12-27T16:40:18.205Z,4.93
2018-12-27T16:42:40.869Z,4.50
2018-12-27T16:45:11.250Z,4.73
2018-12-27T16:50:42.193Z,5.20
2018-12-27T16:53:21.368Z,4.93
2018-12-27T16:58:47.029Z,4.90
2018-12-27T17:01:17.313Z,5.77
2018-12-27T17:03:55.052Z,4.73
2018-12-27T17:06:28.359Z,5.17
2018-12-27T17:09:01.334Z,5.00
2018-12-27T17:11:32.037Z,5.40
2018-12-27T17:14:39.771Z,5.50
2018-12-27T17:20:23.903Z,5.20
2018-12-27T17:22:55.940Z,5.47
2018-12-27T17:25:36.772Z,5.63
2018-12-27T17:28:15.488Z,5.50
2018-12-27T17:30:45.275Z,5.50
2018-12-27T17:33:18.615Z,5.53
2018-12-27T17:35:58.076Z,5.27
2018-12-27T17:38:29.315Z,5.60
2018-12-27T17:41:00.689Z,5.80
2018-12-27T17:43:32.746Z,5.47
2018-12-27T17:46:11.621Z,5.57
2018-12-27T17:48:54.127Z,4.70
2018-12-27T17:51:33.931Z,5.53
2018-12-27T17:57:03.718Z,4.83
2018-12-27T17:59:34.440Z,5.43
2018-12-27T18:02:05.985Z,4.87
2018-12-27T18:04:36.529Z,5.60
2018-12-27T18:07:08.142Z,5.13
2018-12-27T18:09:39.839Z,5.63
2018-12-27T18:12:15.878Z,6.03
2018-12-27T18:14:48.779Z,6.70
2018-12-27T18:17:20.344Z,6.40
2018-12-27T18:19:51.148Z,6.60
2018-12-27T18:22:22.424Z,6.07
2018-12-27T18:24:52.247Z,6.67
2018-12-27T18:27:26.294Z,9.90
2018-12-27T18:29:57.375Z,8.27
2018-12-27T18:32:27.648Z,8.20
2018-12-27T18:35:00.889Z,7.07
2018-12-27T18:37:27.487Z,8.33
2018-12-27T18:40:00.168Z,8.43
2018-12-27T18:42:30.965Z,7.80
2018-12-27T18:45:01.365Z,7.63
2018-12-27T18:47:32.462Z,6.60
2018-12-27T18:50:03.086Z,6.90
2018-12-27T18:52:34.958Z,7.10
2018-12-27T18:55:05.322Z,6.97
2018-12-27T18:57:36.695Z,6.90
2018-12-27T19:00:09.197Z,6.43
2018-12-27T19:02:42.310Z,6.90
2018-12-27T19:05:12.665Z,6.40
2018-12-27T19:07:45.133Z,6.40
2018-12-27T19:10:15.379Z,6.97
2018-12-27T19:13:04.671Z,7.00
2018-12-27T19:15:37.522Z,6.70
2018-12-27T19:18:11.348Z,6.90
2018-12-27T19:20:45.226Z,7.13
2018-12-27T19:23:18.595Z,5.90
2018-12-27T19:25:51.700Z,6.57
2018-12-27T19:28:21.227Z,6.77
2018-12-27T19:30:51.532Z,6.23
2018-12-27T19:33:21.762Z,6.73
2018-12-27T19:35:53.558Z,6.50
2018-12-27T19:38:22.434Z,6.70
2018-12-27T19:40:53.262Z,6.03
2018-12-27T19:43:23.150Z,6.23
2018-12-27T19:45:53.653Z,6.57
2018-12-27T19:48:25.957Z,6.50
2018-12-27T19:50:55.422Z,6.10
2018-12-27T19:53:25.898Z,5.93
2018-12-27T19:55:57.884Z,6.37
2018-12-27T19:58:28.202Z,5.90
2018-12-27T20:00:58.460Z,6.03
2018-12-27T20:03:29.942Z,5.80
2018-12-27T20:05:58.821Z,6.23
2018-12-27T20:08:28.485Z,5.93
2018-12-27T20:10:58.176Z,6.10
2018-12-27T20:13:27.276Z,6.00
2018-12-27T20:15:57.303Z,6.50
2018-12-27T20:18:28.864Z,5.97
2018-12-27T20:20:57.951Z,6.17
2018-12-27T20:23:28.802Z,6.13
2018-12-27T20:25:59.079Z,5.87
2018-12-27T20:28:29.540Z,5.80
2018-12-27T20:30:58.573Z,6.07
2018-12-27T20:33:28.739Z,6.10
2018-12-27T20:35:59.158Z,6.20
2018-12-27T20:38:29.123Z,6.23
2018-12-27T20:40:57.936Z,6.00
2018-12-27T20:43:30.531Z,5.77
2018-12-27T20:46:04.954Z,6.17
2018-12-27T20:48:34.128Z,5.67
2018-12-27T20:51:04.668Z,6.00
2018-12-27T20:53:36.475Z,6.23
2018-12-27T20:56:07.488Z,6.03
2018-12-27T20:58:36.274Z,6.70
2018-12-27T21:01:06.130Z,6.47
2018-12-27T21:03:37.722Z,6.03
2018-12-27T21:06:09.828Z,6.20
2018-12-27T21:08:41.180Z,6.43
2018-12-27T21:11:12.928Z,6.27
2018-12-27T21:13:42.593Z,6.50
2018-12-27T21:16:11.668Z,6.47
2018-12-27T21:18:41.577Z,6.00
2018-12-27T21:21:13.289Z,6.37
2018-12-27T21:23:43.238Z,5.60
2018-12-27T21:26:11.873Z,6.57
2018-12-27T21:28:42.771Z,6.20
2018-12-27T21:31:14.130Z,6.50
2018-12-27T21:33:44.012Z,6.00
2018-12-27T21:36:12.885Z,6.17
2018-12-27T21:38:43.960Z,6.77
2018-12-27T21:41:16.150Z,6.17
2018-12-27T21:43:47.316Z,6.60
2018-12-27T21:46:16.738Z,5.87
2018-12-27T21:48:47.153Z,6.30
2018-12-27T21:51:23.048Z,5.87
2018-12-27T21:53:56.539Z,5.77
2018-12-27T21:56:27.636Z,5.70
2018-12-27T21:58:58.609Z,5.70
2018-12-27T22:01:31.312Z,6.03
2018-12-27T22:04:01.012Z,6.13
2018-12-27T22:06:29.556Z,5.93
2018-12-27T22:08:58.387Z,6.27
2018-12-27T22:11:28.133Z,6.00
2018-12-27T22:13:59.557Z,6.00
2018-12-27T22:16:28.094Z,5.27
2018-12-27T22:18:58.132Z,6.60
2018-12-27T22:21:29.396Z,6.80
2018-12-27T22:24:01.192Z,6.03
2018-12-27T22:26:31.498Z,6.03
2018-12-27T22:29:00.024Z,6.53
2018-12-27T22:31:30.847Z,5.83
2018-12-27T22:34:01.687Z,6.40
2018-12-27T22:36:33.945Z,6.17
2018-12-27T22:39:07.118Z,6.27
2018-12-27T22:41:39.814Z,6.20
2018-12-27T22:44:13.950Z,5.97
2018-12-27T22:46:45.179Z,6.67
2018-12-27T22:49:16.703Z,6.00
2018-12-27T22:51:49.186Z,5.73
2018-12-27T22:54:19.592Z,6.60
2018-12-27T22:56:50.006Z,5.93
2018-12-27T22:59:20.136Z,6.00
2018-12-27T23:01:51.315Z,5.77
2018-12-27T23:04:21.137Z,6.07
2018-12-27T23:06:53.483Z,5.70
2018-12-27T23:09:21.976Z,6.10
2018-12-27T23:11:52.562Z,6.00
2018-12-27T23:14:21.877Z,5.83
2018-12-27T23:16:50.440Z,6.07
2018-12-27T23:19:19.254Z,6.43
2018-12-27T23:21:47.805Z,5.90
2018-12-27T23:24:17.805Z,6.10
2018-12-27T23:26:46.629Z,6.47
2018-12-27T23:29:15.145Z,6.07
2018-12-27T23:31:45.087Z,5.73
2018-12-27T23:34:17.099Z,6.33
2018-12-27T23:36:45.722Z,6.10
2018-12-27T23:39:14.239Z,6.17
2018-12-27T23:41:44.062Z,5.93
2018-12-27T23:44:12.847Z,6.90
2018-12-27T23:46:41.396Z,5.90
2018-12-27T23:49:09.934Z,6.23
2018-12-27T23:51:38.764Z,6.20
2018-12-27T23:54:07.284Z,5.50
2018-12-27T23:56:37.202Z,5.60
2018-12-27T23:59:06.205Z,5.60
